Terminal Aerodrome Forecast
Issued by NWS

Home | Current Version | Previous Version | Text Only | Print | Product List | Glossary On
Versions: 1 2 3 4 5 6 7 8 9 10 11 12 13 14 15 16 17 18 19 20
000
FTUS41 KPBZ 012300 RRA
TAFDUJ
TAF
KDUJ 012348Z 0200/0224 11010KT 2SM -SN BR SCT004 OVC018
      TEMPO 0200/0204 1SM -SN BR BKN004
     FM020400 13008KT 1SM -SN BR OVC005
     FM020900 22010KT 4SM -SN BR OVC012
     FM021300 29015G30KT 1SM -SHSN OVC008
     FM021900 29015G25KT 6SM -SHSN OVC018=

USA.gov is the U.S. government's official web portal to all federal, state and local government web resources and services.